Terminal Aerodrome Forecast
Issued by NWS

Home | Current Version | Previous Version | Text Only | Print | Product List | Glossary On
Versions: 1 2 3 4 5 6 7 8 9 10 11 12 13 14 15 16 17 18 19 20 21 22 23 24 25 26 27 28
327
FTUS43 KGLD 221139
TAFMCK
TAF
KMCK 221139Z 2212/2312 15009KT 5SM BR BKN005
      TEMPO 2212/2216 1SM BR SCT004 OVC005
     FM221600 04008KT P6SM SCT007 BKN025
     FM221700 05008KT P6SM SCT250
     FM230100 11014KT P6SM BKN250
     FM230900 16013KT P6SM SCT250 WS010/19040KT=

USA.gov is the U.S. government's official web portal to all federal, state and local government web resources and services.